createdAt,value
2018-09-04T00:02:19.651Z,20.81
2018-09-04T00:04:48.056Z,20.76
2018-09-04T00:07:19.832Z,20.73
2018-09-04T00:09:49.460Z,20.70
2018-09-04T00:12:18.585Z,20.66
2018-09-04T00:14:47.172Z,20.58
2018-09-04T00:17:15.729Z,20.63
2018-09-04T00:19:44.085Z,20.63
2018-09-04T00:22:12.536Z,20.60
2018-09-04T00:24:41.055Z,20.58
2018-09-04T00:27:09.753Z,20.56
2018-09-04T00:29:38.361Z,20.53
2018-09-04T00:32:06.504Z,20.46
2018-09-04T00:34:34.926Z,20.42
2018-09-04T00:37:03.184Z,20.38
2018-09-04T00:39:32.228Z,20.32
2018-09-04T00:42:00.694Z,20.32
2018-09-04T00:44:29.709Z,20.29
2018-09-04T00:46:58.695Z,20.25
2018-09-04T00:49:27.633Z,20.20
2018-09-04T00:51:56.044Z,20.17
2018-09-04T00:54:24.468Z,20.13
2018-09-04T00:56:53.156Z,20.14
2018-09-04T00:59:21.373Z,20.13
2018-09-04T01:01:50.071Z,20.12
2018-09-04T01:04:18.728Z,20.07
2018-09-04T01:06:47.493Z,20.04
2018-09-04T01:09:18.923Z,20.04
2018-09-04T01:11:47.172Z,20.05
2018-09-04T01:14:15.896Z,20.01
2018-09-04T01:16:44.664Z,19.94
2018-09-04T01:19:13.344Z,19.90
2018-09-04T01:21:42.041Z,19.84
2018-09-04T01:24:10.924Z,19.80
2018-09-04T01:26:39.122Z,19.76
2018-09-04T01:29:07.796Z,19.75
2018-09-04T01:31:36.574Z,19.71
2018-09-04T01:34:04.688Z,19.69
2018-09-04T01:36:33.438Z,19.67
2018-09-04T01:39:01.741Z,19.66
2018-09-04T01:41:29.868Z,19.65
2018-09-04T01:43:58.257Z,19.64
2018-09-04T01:46:27.018Z,19.64
2018-09-04T01:48:55.360Z,19.65
2018-09-04T01:51:23.817Z,19.64
2018-09-04T01:53:52.564Z,19.62
2018-09-04T01:56:21.449Z,19.61
2018-09-04T01:58:50.097Z,19.60
2018-09-04T02:01:19.045Z,19.57
2018-09-04T02:03:47.693Z,19.53
2018-09-04T02:06:16.180Z,19.50
2018-09-04T02:08:44.873Z,19.48
2018-09-04T02:11:13.482Z,19.45
2018-09-04T02:13:41.940Z,19.44
2018-09-04T02:16:10.669Z,19.42
2018-09-04T02:18:38.813Z,19.42
2018-09-04T02:21:07.280Z,19.42
2018-09-04T02:23:35.736Z,19.44
2018-09-04T02:26:04.507Z,19.44
2018-09-04T02:28:33.146Z,19.43
2018-09-04T02:31:01.904Z,19.40
2018-09-04T02:33:30.299Z,19.36
2018-09-04T02:35:58.991Z,19.33
2018-09-04T02:38:27.833Z,19.29
2018-09-04T02:40:55.958Z,19.26
2018-09-04T02:43:24.393Z,19.25
2018-09-04T02:45:52.580Z,19.23
2018-09-04T02:48:21.034Z,19.22
2018-09-04T02:50:49.933Z,19.22
2018-09-04T02:53:18.385Z,19.22
2018-09-04T02:55:46.918Z,19.19
2018-09-04T02:58:16.096Z,19.16
2018-09-04T03:00:44.698Z,19.13
2018-09-04T03:03:12.848Z,19.09
2018-09-04T03:05:41.359Z,19.07
2018-09-04T03:08:09.632Z,19.07
2018-09-04T03:10:37.814Z,19.05
2018-09-04T03:13:06.521Z,19.02
2018-09-04T03:15:34.812Z,19.00
2018-09-04T03:18:03.270Z,18.99
2018-09-04T03:20:31.997Z,18.99
2018-09-04T03:23:00.512Z,19.00
2018-09-04T03:25:28.817Z,19.00
2018-09-04T03:27:57.397Z,18.96
2018-09-04T03:30:26.066Z,18.93
2018-09-04T03:32:54.813Z,18.93
2018-09-04T03:35:23.591Z,18.92
2018-09-04T03:37:52.016Z,18.90
2018-09-04T03:40:20.753Z,18.89
2018-09-04T03:42:49.208Z,18.88
2018-09-04T03:45:17.921Z,18.80
2018-09-04T03:47:46.412Z,18.83
2018-09-04T03:50:15.951Z,18.82
2018-09-04T03:52:44.057Z,18.83
2018-09-04T03:55:12.801Z,18.82
2018-09-04T03:57:41.359Z,18.76
2018-09-04T04:00:09.671Z,18.73
2018-09-04T04:02:38.122Z,18.70
2018-09-04T04:05:06.262Z,18.66
2018-09-04T04:07:36.377Z,18.63
2018-09-04T04:10:04.797Z,18.59
2018-09-04T04:12:33.269Z,18.58
2018-09-04T04:15:01.986Z,18.57
2018-09-04T04:17:30.893Z,18.55
2018-09-04T04:19:59.660Z,18.52
2018-09-04T04:22:27.978Z,18.51
2018-09-04T04:24:56.259Z,18.51
2018-09-04T04:27:24.917Z,18.52
2018-09-04T04:29:53.041Z,18.51
2018-09-04T04:32:22.392Z,18.48
2018-09-04T04:34:50.712Z,18.44
2018-09-04T04:37:18.965Z,18.44
2018-09-04T04:39:47.834Z,18.42
2018-09-04T04:42:16.493Z,18.42
2018-09-04T04:44:44.637Z,18.45
2018-09-04T04:47:12.864Z,18.44
2018-09-04T04:49:41.028Z,18.44
2018-09-04T04:52:09.484Z,18.46
2018-09-04T04:54:37.956Z,18.44
2018-09-04T04:57:06.066Z,18.44
2018-09-04T04:59:34.525Z,18.47
2018-09-04T05:02:03.409Z,18.50
2018-09-04T05:04:31.825Z,18.50
2018-09-04T05:07:00.130Z,18.52
2018-09-04T05:09:28.260Z,18.58
2018-09-04T05:11:57.053Z,18.64
2018-09-04T05:14:25.797Z,18.68
2018-09-04T05:16:53.917Z,18.71
2018-09-04T05:19:22.061Z,18.73
2018-09-04T05:21:50.168Z,18.76
2018-09-04T05:24:18.321Z,18.81
2018-09-04T05:26:46.697Z,18.88
2018-09-04T05:29:16.463Z,18.91
2018-09-04T05:31:48.781Z,18.95
2018-09-04T05:34:17.464Z,19.01
2018-09-04T05:36:46.140Z,19.06
2018-09-04T05:39:16.045Z,19.10
2018-09-04T05:41:44.513Z,19.16
2018-09-04T05:44:12.947Z,19.21
2018-09-04T05:46:43.973Z,19.26
2018-09-04T05:49:14.620Z,19.31
2018-09-04T05:51:43.281Z,19.36
2018-09-04T05:54:11.701Z,19.38
2018-09-04T05:56:40.503Z,19.44
2018-09-04T05:59:08.917Z,19.53
2018-09-04T06:01:37.037Z,19.60
2018-09-04T06:04:05.485Z,19.64
2018-09-04T06:06:34.278Z,19.73
2018-09-04T06:09:02.686Z,19.79
2018-09-04T06:11:31.461Z,19.83
2018-09-04T06:14:00.201Z,19.90
2018-09-04T06:16:28.921Z,19.97
2018-09-04T06:18:57.613Z,20.04
2018-09-04T06:21:25.949Z,20.07
2018-09-04T06:23:54.400Z,20.06
2018-09-04T06:26:22.848Z,20.05
2018-09-04T06:28:50.957Z,20.04
2018-09-04T06:31:19.249Z,20.06
2018-09-04T06:33:48.181Z,20.10
2018-09-04T06:36:16.305Z,20.17
2018-09-04T06:39:00.618Z,20.22
2018-09-04T06:41:29.721Z,20.23
2018-09-04T06:43:57.968Z,20.32
2018-09-04T06:46:26.619Z,20.48
2018-09-04T06:48:55.297Z,20.68
2018-09-04T06:51:23.416Z,20.86
2018-09-04T06:53:52.206Z,20.99
2018-09-04T06:56:20.304Z,21.09
2018-09-04T06:58:48.772Z,21.26
2018-09-04T07:01:17.245Z,21.36
2018-09-04T07:03:45.681Z,21.40
2018-09-04T07:06:14.015Z,21.38
2018-09-04T07:08:42.466Z,21.41
2018-09-04T07:11:10.912Z,21.38
2018-09-04T07:13:39.465Z,21.39
2018-09-04T07:16:07.936Z,21.55
2018-09-04T07:18:36.577Z,21.74
2018-09-04T07:21:05.300Z,21.94
2018-09-04T07:23:34.057Z,22.17
2018-09-04T07:26:02.529Z,22.35
2018-09-04T07:28:30.984Z,22.53
2018-09-04T07:30:59.112Z,22.74
2018-09-04T07:33:27.793Z,22.86
2018-09-04T07:35:56.233Z,22.92
2018-09-04T07:38:24.360Z,23.09
2018-09-04T07:40:52.796Z,23.33
2018-09-04T07:43:21.550Z,23.57
2018-09-04T07:45:49.645Z,23.80
2018-09-04T07:48:18.056Z,24.00
2018-09-04T07:50:46.163Z,24.20
2018-09-04T07:53:14.276Z,24.37
2018-09-04T07:55:42.704Z,24.53
2018-09-04T07:58:11.452Z,24.66
2018-09-04T08:00:39.953Z,24.58
2018-09-04T08:03:08.461Z,24.50
2018-09-04T08:05:36.915Z,24.60
2018-09-04T08:08:05.664Z,24.82
2018-09-04T08:10:35.897Z,25.05
2018-09-04T08:13:06.337Z,25.23
2018-09-04T08:15:35.117Z,25.37
2018-09-04T08:18:03.618Z,25.46
2018-09-04T08:20:31.825Z,25.57
2018-09-04T08:23:00.585Z,25.68
2018-09-04T08:25:29.525Z,25.81
2018-09-04T08:27:58.157Z,25.97
2018-09-04T08:30:26.285Z,26.07
2018-09-04T08:32:54.796Z,26.17
2018-09-04T08:35:23.717Z,26.32
2018-09-04T08:37:56.461Z,26.51
2018-09-04T08:40:24.892Z,26.76
2018-09-04T08:42:53.228Z,26.94
2018-09-04T08:45:21.460Z,27.06
2018-09-04T08:47:49.663Z,27.10
2018-09-04T08:50:18.460Z,27.21
2018-09-04T08:52:46.805Z,27.37
2018-09-04T09:00:20.933Z,27.76
2018-09-04T09:02:49.449Z,27.90
2018-09-04T09:05:17.899Z,28.01
2018-09-04T09:07:46.054Z,28.04
2018-09-04T09:10:14.486Z,28.18
2018-09-04T09:12:42.829Z,28.32
2018-09-04T09:15:11.273Z,28.45
2018-09-04T09:17:39.743Z,28.43
2018-09-04T09:20:08.265Z,28.43
2018-09-04T09:22:36.405Z,28.36
2018-09-04T09:25:05.134Z,28.37
2018-09-04T09:27:33.244Z,28.46
2018-09-04T09:30:02.134Z,28.66
2018-09-04T09:32:31.834Z,28.97
2018-09-04T09:35:00.303Z,29.17
2018-09-04T09:37:29.015Z,29.27
2018-09-04T09:39:57.465Z,29.40
2018-09-04T09:42:25.958Z,29.57
2018-09-04T09:44:55.003Z,29.86
2018-09-04T09:47:24.110Z,30.16
2018-09-04T09:49:52.243Z,30.42
2018-09-04T09:52:20.928Z,30.57
2018-09-04T09:54:49.389Z,30.55
2018-09-04T09:57:17.863Z,30.50
2018-09-04T09:59:46.016Z,30.51
2018-09-04T10:02:24.766Z,30.64
2018-09-04T10:04:53.221Z,30.80
2018-09-04T10:07:22.115Z,30.68
2018-09-04T10:09:50.314Z,30.49
2018-09-04T10:12:18.921Z,30.29
2018-09-04T10:14:47.057Z,30.01
2018-09-04T10:17:15.160Z,29.82
2018-09-04T10:19:43.291Z,29.67
2018-09-04T10:22:11.594Z,29.66
2018-09-04T10:24:40.061Z,29.52
2018-09-04T10:27:08.531Z,29.53
2018-09-04T10:29:37.185Z,29.48
2018-09-04T10:32:06.109Z,29.35
2018-09-04T10:34:34.571Z,29.41
2018-09-04T10:37:03.132Z,29.68
2018-09-04T10:42:21.659Z,30.76
2018-09-04T10:44:49.898Z,31.21
2018-09-04T10:47:18.348Z,31.45
2018-09-04T10:49:46.472Z,31.61
2018-09-04T10:52:14.921Z,31.84
2018-09-04T10:54:43.262Z,32.01
2018-09-04T10:57:11.909Z,32.08
2018-09-04T10:59:40.397Z,32.12
2018-09-04T11:02:10.599Z,32.26
2018-09-04T11:04:39.414Z,32.39
2018-09-04T11:07:07.977Z,32.54
2018-09-04T11:09:36.237Z,32.77
2018-09-04T11:12:04.413Z,32.91
2018-09-04T11:14:32.593Z,32.98
2018-09-04T11:17:01.046Z,32.74
2018-09-04T11:19:29.368Z,32.14
2018-09-04T11:21:57.843Z,31.70
2018-09-04T11:24:26.569Z,31.64
2018-09-04T11:26:55.014Z,31.69
2018-09-04T11:54:59.229Z,33.48
2018-09-04T11:57:27.404Z,33.75
2018-09-04T11:59:55.857Z,33.92
2018-09-04T12:02:30.648Z,33.76
2018-09-04T12:05:00.257Z,33.35
2018-09-04T12:07:30.907Z,33.06
2018-09-04T12:09:59.573Z,33.24
2018-09-04T12:12:28.776Z,33.53
2018-09-04T12:14:58.492Z,33.66
2018-09-04T12:17:28.213Z,33.56
2018-09-04T12:21:04.805Z,33.45
2018-09-04T12:23:34.831Z,33.17
2018-09-04T12:26:06.377Z,33.31
2018-09-04T12:28:34.687Z,33.62
2018-09-04T12:31:03.292Z,33.87
2018-09-04T12:33:31.754Z,34.09
2018-09-04T12:35:59.920Z,34.24
2018-09-04T12:38:31.278Z,34.33
2018-09-04T12:41:04.159Z,34.56
2018-09-04T12:43:32.844Z,34.80
2018-09-04T12:46:01.321Z,34.86
2018-09-04T12:48:30.590Z,34.69
2018-09-04T12:51:00.272Z,34.50
2018-09-04T12:53:29.244Z,34.31
2018-09-04T12:55:57.677Z,34.20
2018-09-04T12:58:26.390Z,34.13
2018-09-04T13:00:56.348Z,34.05
2018-09-04T13:03:26.241Z,33.82
2018-09-04T13:05:54.641Z,33.22
2018-09-04T13:08:27.759Z,32.91
2018-09-04T13:10:56.088Z,33.05
2018-09-04T13:13:24.552Z,33.45
2018-09-04T13:15:54.604Z,33.81
2018-09-04T13:18:23.136Z,33.93
2018-09-04T13:20:51.640Z,33.72
2018-09-04T13:23:20.108Z,33.37
2018-09-04T13:25:48.444Z,32.97
2018-09-04T13:28:16.913Z,32.54
2018-09-04T13:30:45.567Z,32.27
2018-09-04T13:33:13.720Z,32.12
2018-09-04T13:35:42.228Z,32.21
2018-09-04T13:38:11.533Z,32.46
2018-09-04T13:40:40.585Z,32.82
2018-09-04T13:43:09.057Z,33.24
2018-09-04T13:45:37.169Z,33.59
2018-09-04T13:48:05.293Z,33.86
2018-09-04T13:50:33.768Z,33.96
2018-09-04T13:53:02.235Z,34.01
2018-09-04T13:55:30.692Z,34.13
2018-09-04T13:58:02.148Z,34.20
2018-09-04T14:00:31.654Z,34.21
2018-09-04T14:03:00.115Z,34.24
2018-09-04T14:05:28.234Z,34.16
2018-09-04T14:07:56.596Z,33.99
2018-09-04T14:10:25.144Z,34.07
2018-09-04T14:12:53.588Z,34.11
2018-09-04T14:15:22.036Z,34.04
2018-09-04T14:17:50.191Z,33.96
2018-09-04T14:20:18.541Z,33.96
2018-09-04T14:22:47.367Z,34.02
2018-09-04T14:25:17.085Z,34.09
2018-09-04T14:27:45.190Z,34.15
2018-09-04T14:30:16.778Z,34.05
2018-09-04T14:32:43.544Z,33.84
2018-09-04T14:35:12.620Z,33.61
2018-09-04T14:37:40.740Z,33.57
2018-09-04T14:40:09.207Z,33.68
2018-09-04T14:42:37.652Z,33.80
2018-09-04T14:45:05.989Z,33.82
2018-09-04T14:47:34.628Z,33.81
2018-09-04T14:50:03.323Z,33.79
2018-09-04T14:52:31.784Z,33.56
2018-09-04T14:55:00.257Z,33.32
2018-09-04T14:57:28.380Z,33.26
2018-09-04T14:59:56.521Z,33.31
2018-09-04T15:02:24.872Z,33.23
2018-09-04T15:04:53.387Z,33.13
2018-09-04T15:07:21.876Z,33.10
2018-09-04T15:09:50.360Z,32.99
2018-09-04T15:12:18.472Z,32.82
2018-09-04T15:14:47.144Z,32.75
2018-09-04T15:17:15.658Z,32.80
2018-09-04T15:19:44.172Z,32.90
2018-09-04T15:22:12.615Z,32.90
2018-09-04T15:24:41.094Z,32.90
2018-09-04T15:27:09.569Z,32.97
2018-09-04T15:29:38.032Z,33.01
2018-09-04T15:32:06.811Z,33.04
2018-09-04T15:34:35.258Z,32.98
2018-09-04T15:37:03.970Z,32.74
2018-09-04T15:39:32.265Z,32.51
2018-09-04T15:42:00.583Z,32.33
2018-09-04T15:44:28.744Z,32.24
2018-09-04T15:46:57.193Z,32.20
2018-09-04T15:49:31.140Z,32.17
2018-09-04T15:52:00.139Z,32.09
2018-09-04T15:54:41.411Z,31.93
2018-09-04T15:57:09.956Z,31.70
2018-09-04T15:59:38.494Z,31.49
2018-09-04T16:02:06.841Z,31.41
2018-09-04T16:04:35.181Z,31.34
2018-09-04T16:07:07.224Z,31.26
2018-09-04T16:09:35.602Z,31.25
2018-09-04T16:12:03.948Z,31.24
2018-09-04T16:14:32.655Z,31.23
2018-09-04T16:17:00.842Z,31.21
2018-09-04T16:19:29.007Z,31.14
2018-09-04T16:21:57.960Z,30.97
2018-09-04T16:24:26.332Z,30.84
2018-09-04T16:26:54.506Z,30.79
2018-09-04T16:29:22.879Z,30.78
2018-09-04T16:31:51.197Z,30.78
2018-09-04T16:34:19.623Z,30.77
2018-09-04T16:36:48.206Z,30.76
2018-09-04T16:39:16.705Z,30.67
2018-09-04T16:41:45.379Z,30.58
2018-09-04T16:44:14.020Z,30.53
2018-09-04T16:46:42.471Z,30.46
2018-09-04T16:49:10.591Z,30.37
2018-09-04T16:51:39.052Z,30.31
2018-09-04T16:54:07.503Z,30.19
2018-09-04T16:56:35.824Z,30.09
2018-09-04T16:59:04.345Z,29.98
2018-09-04T17:01:32.479Z,29.86
2018-09-04T17:04:01.132Z,29.76
2018-09-04T17:06:29.283Z,29.66
2018-09-04T17:08:57.807Z,29.51
2018-09-04T17:11:26.319Z,29.42
2018-09-04T17:13:55.723Z,29.25
2018-09-04T17:16:23.859Z,29.19
2018-09-04T17:18:52.197Z,29.06
2018-09-04T17:21:20.668Z,28.92
2018-09-04T17:23:49.119Z,28.80
2018-09-04T17:26:17.599Z,28.68
2018-09-04T17:28:45.699Z,28.59
2018-09-04T17:31:13.833Z,28.52
2018-09-04T17:33:41.948Z,28.46
2018-09-04T17:36:10.615Z,28.42
2018-09-04T17:38:39.217Z,28.37
2018-09-04T17:41:07.679Z,28.31
2018-09-04T17:43:36.129Z,28.26
2018-09-04T17:46:04.813Z,28.22
2018-09-04T17:48:33.363Z,28.15
2018-09-04T17:51:01.923Z,28.07
2018-09-04T17:53:30.363Z,27.99
2018-09-04T17:55:58.688Z,27.92
2018-09-04T17:58:26.852Z,27.84
2018-09-04T18:00:55.354Z,27.76
2018-09-04T18:03:23.703Z,27.70
2018-09-04T18:05:52.400Z,27.62
2018-09-04T18:08:20.556Z,27.54
2018-09-04T18:10:49.204Z,27.47
2018-09-04T18:13:17.720Z,27.39
2018-09-04T18:15:45.910Z,27.32
2018-09-04T18:18:15.442Z,27.23
2018-09-04T18:20:44.140Z,27.16
2018-09-04T18:23:12.605Z,27.08
2018-09-04T18:25:40.720Z,26.98
2018-09-04T18:28:09.201Z,26.89
2018-09-04T18:30:37.959Z,26.79
2018-09-04T18:33:06.405Z,26.70
2018-09-04T18:35:35.077Z,26.62
2018-09-04T18:38:04.639Z,26.55
2018-09-04T18:40:33.007Z,26.48
2018-09-04T18:43:01.157Z,26.40
2018-09-04T18:45:43.798Z,26.32
2018-09-04T18:48:12.243Z,26.26
2018-09-04T18:50:40.731Z,26.18
2018-09-04T18:53:09.200Z,26.11
2018-09-04T18:55:37.671Z,26.03
2018-09-04T18:58:06.632Z,25.96
2018-09-04T19:00:35.076Z,25.90
2018-09-04T19:03:03.569Z,25.84
2018-09-04T19:05:32.116Z,25.77
2018-09-04T19:08:02.193Z,25.68
2018-09-04T19:10:31.135Z,25.61
2018-09-04T19:12:59.766Z,25.52
2018-09-04T19:15:28.983Z,25.43
2018-09-04T19:17:57.355Z,25.36
2018-09-04T19:20:25.523Z,25.31
2018-09-04T19:22:54.160Z,25.24
2018-09-04T19:25:22.312Z,25.19
2018-09-04T19:27:50.683Z,25.13
2018-09-04T19:30:19.283Z,25.08
2018-09-04T19:32:47.416Z,25.04
2018-09-04T19:35:16.063Z,24.98
2018-09-04T19:37:45.396Z,24.93
2018-09-04T19:40:14.290Z,24.85
2018-09-04T19:42:43.307Z,24.78
2018-09-04T19:45:11.691Z,24.72
2018-09-04T19:47:40.867Z,24.65
2018-09-04T19:50:10.114Z,24.57
2018-09-04T19:52:38.971Z,24.51
2018-09-04T19:55:08.797Z,24.45
2018-09-04T19:57:36.934Z,24.40
2018-09-04T20:00:05.176Z,24.32
2018-09-04T20:02:33.636Z,24.25
2018-09-04T20:05:02.288Z,24.21
2018-09-04T20:07:30.799Z,24.17
2018-09-04T20:09:59.265Z,24.10
2018-09-04T20:12:27.736Z,24.05
2018-09-04T20:14:55.887Z,23.97
2018-09-04T20:17:24.454Z,23.92
2018-09-04T20:19:52.764Z,23.85
2018-09-04T20:22:21.199Z,23.80
2018-09-04T20:24:49.409Z,23.74
2018-09-04T20:27:17.903Z,23.68
2018-09-04T20:29:46.415Z,23.61
2018-09-04T20:32:15.501Z,23.55
2018-09-04T20:34:43.973Z,23.49
2018-09-04T20:37:12.395Z,23.46
2018-09-04T20:39:40.529Z,23.43
2018-09-04T20:42:09.027Z,23.40
2018-09-04T20:44:37.321Z,23.35
2018-09-04T20:47:05.776Z,23.32
2018-09-04T20:49:34.207Z,23.27
2018-09-04T20:52:02.319Z,23.22
2018-09-04T20:54:30.694Z,23.18
2018-09-04T20:57:31.984Z,23.12
2018-09-04T21:00:16.940Z,23.05
2018-09-04T21:02:56.986Z,22.97
2018-09-04T21:05:36.476Z,22.90
2018-09-04T21:08:18.159Z,22.82
2018-09-04T21:10:47.117Z,22.75
2018-09-04T21:13:15.539Z,22.67
2018-09-04T21:15:43.675Z,22.62
2018-09-04T21:18:12.399Z,22.57
2018-09-04T21:20:40.620Z,22.52
2018-09-04T21:23:09.091Z,22.47
2018-09-04T21:25:37.239Z,22.43
2018-09-04T21:28:05.646Z,22.39
2018-09-04T21:30:34.324Z,22.33
2018-09-04T21:33:02.825Z,22.27
2018-09-04T21:35:31.284Z,22.21
2018-09-04T21:38:00.030Z,22.15
2018-09-04T21:40:28.471Z,22.08
2018-09-04T21:42:56.600Z,22.01
2018-09-04T21:45:24.789Z,21.93
2018-09-04T21:47:53.242Z,21.85
2018-09-04T21:50:21.707Z,21.80
2018-09-04T21:52:50.171Z,21.73
2018-09-04T21:55:18.297Z,21.68
2018-09-04T21:57:46.920Z,21.64
2018-09-04T22:00:19.720Z,21.61
2018-09-04T22:02:48.172Z,21.57
2018-09-04T22:05:16.581Z,21.53
2018-09-04T22:07:44.728Z,21.49
2018-09-04T22:10:13.183Z,21.47
2018-09-04T22:12:41.320Z,21.44
2018-09-04T22:15:09.772Z,21.41
2018-09-04T22:17:38.341Z,21.39
2018-09-04T22:20:07.031Z,21.35
2018-09-04T22:22:35.236Z,21.32
2018-09-04T22:25:03.920Z,21.27
2018-09-04T22:27:32.923Z,21.23
2018-09-04T22:30:01.273Z,21.11
2018-09-04T22:32:29.688Z,21.17
2018-09-04T22:34:58.076Z,21.14
2018-09-04T22:37:26.431Z,21.11
2018-09-04T22:39:54.896Z,21.08
2018-09-04T22:42:23.043Z,21.07
2018-09-04T22:48:11.527Z,21.03
2018-09-04T22:50:45.428Z,20.99
2018-09-04T22:53:13.545Z,20.96
2018-09-04T22:55:41.919Z,20.93
2018-09-04T22:58:10.421Z,20.90
2018-09-04T23:00:39.011Z,20.87
2018-09-04T23:03:07.128Z,20.85
2018-09-04T23:05:35.456Z,20.81
2018-09-04T23:08:05.783Z,20.80
2018-09-04T23:10:34.480Z,20.77
2018-09-04T23:13:02.929Z,20.74
2018-09-04T23:15:31.420Z,20.74
2018-09-04T23:17:59.857Z,20.73
2018-09-04T23:20:28.312Z,20.69
2018-09-04T23:22:56.771Z,20.63
2018-09-04T23:25:25.203Z,20.57
2018-09-04T23:27:53.681Z,20.53
2018-09-04T23:30:22.317Z,20.50
2018-09-04T23:32:51.083Z,20.47
2018-09-04T23:35:19.519Z,20.45
2018-09-04T23:37:47.991Z,20.41
2018-09-04T23:40:16.427Z,20.37
2018-09-04T23:42:44.575Z,20.28
2018-09-04T23:45:13.936Z,20.19
2018-09-04T23:47:42.912Z,20.08
2018-09-04T23:50:11.455Z,20.02
2018-09-04T23:52:39.985Z,19.99
2018-09-04T23:55:08.788Z,19.97
2018-09-04T23:57:37.683Z,19.94
